createdAt,value
2018-06-08T00:00:43.053Z,17.00
2018-06-08T00:03:11.762Z,17.00
2018-06-08T00:05:40.395Z,17.10
2018-06-08T00:08:08.928Z,17.10
2018-06-08T00:10:37.525Z,17.00
2018-06-08T00:13:06.304Z,17.10
2018-06-08T00:15:34.884Z,17.00
2018-06-08T00:18:03.440Z,17.00
2018-06-08T00:23:00.230Z,17.00
2018-06-08T00:25:28.730Z,16.90
2018-06-08T00:27:57.278Z,17.00
2018-06-08T00:30:25.792Z,17.00
2018-06-08T00:32:54.310Z,17.00
2018-06-08T00:35:22.859Z,17.00
2018-06-08T00:37:51.399Z,17.00
2018-06-08T00:40:19.981Z,17.00
2018-06-08T00:42:48.543Z,17.00
2018-06-08T00:45:17.074Z,17.00
2018-06-08T00:47:45.618Z,17.00
2018-06-08T00:50:14.159Z,17.00
2018-06-08T00:52:42.724Z,17.00
2018-06-08T00:55:11.341Z,17.00
2018-06-08T00:57:39.880Z,17.00
2018-06-08T01:00:08.474Z,17.10
2018-06-08T01:02:37.070Z,17.00
2018-06-08T01:05:05.697Z,17.00
2018-06-08T01:07:34.222Z,17.00
2018-06-08T01:10:02.758Z,17.00
2018-06-08T01:12:31.300Z,17.00
2018-06-08T01:14:59.818Z,17.10
2018-06-08T01:17:28.377Z,17.00
2018-06-08T01:19:56.949Z,17.00
2018-06-08T01:22:25.478Z,16.90
2018-06-08T01:24:54.060Z,16.90
2018-06-08T01:27:22.584Z,16.80
2018-06-08T01:29:51.155Z,16.80
2018-06-08T01:32:19.706Z,16.90
2018-06-08T01:34:48.222Z,16.90
2018-06-08T01:37:16.931Z,16.90
2018-06-08T01:39:45.462Z,16.90
2018-06-08T01:42:13.990Z,16.80
2018-06-08T01:44:42.631Z,16.90
2018-06-08T01:47:11.222Z,16.80
2018-06-08T01:49:39.761Z,16.80
2018-06-08T01:52:08.380Z,16.80
2018-06-08T01:54:36.950Z,16.80
2018-06-08T01:57:05.503Z,16.80
2018-06-08T01:59:35.557Z,16.80
2018-06-08T02:02:04.552Z,16.80
2018-06-08T02:04:33.117Z,16.80
2018-06-08T02:07:01.771Z,16.80
2018-06-08T02:09:30.351Z,16.80
2018-06-08T02:11:59.067Z,16.80
2018-06-08T02:14:27.619Z,16.80
2018-06-08T02:16:56.203Z,16.80
2018-06-08T02:19:24.779Z,16.70
2018-06-08T02:21:53.367Z,16.70
2018-06-08T02:24:21.953Z,16.70
2018-06-08T02:26:50.527Z,16.70
2018-06-08T02:29:19.108Z,16.70
2018-06-08T02:31:47.687Z,16.70
2018-06-08T02:34:16.259Z,16.70
2018-06-08T02:36:44.818Z,16.60
2018-06-08T02:39:13.358Z,16.60
2018-06-08T02:41:41.900Z,16.70
2018-06-08T02:44:10.492Z,16.70
2018-06-08T02:46:39.105Z,16.80
2018-06-08T02:49:07.688Z,16.70
2018-06-08T02:51:36.330Z,16.60
2018-06-08T02:54:04.909Z,16.60
2018-06-08T02:56:33.516Z,16.60
2018-06-08T02:59:02.216Z,16.70
2018-06-08T03:01:36.138Z,16.70
2018-06-08T03:04:04.873Z,16.70
2018-06-08T03:06:33.469Z,16.70
2018-06-08T03:09:02.160Z,16.50
2018-06-08T03:11:31.067Z,16.50
2018-06-08T03:14:00.724Z,16.60
2018-06-08T03:16:29.606Z,16.60
2018-06-08T03:18:58.528Z,16.70
2018-06-08T03:21:27.483Z,16.70
2018-06-08T03:23:56.282Z,16.70
2018-06-08T03:26:25.131Z,16.70
2018-06-08T03:28:54.044Z,16.70
2018-06-08T03:31:36.875Z,16.70
2018-06-08T03:34:05.588Z,16.70
2018-06-08T03:36:34.333Z,16.70
2018-06-08T03:39:03.191Z,16.80
2018-06-08T03:41:32.163Z,16.70
2018-06-08T03:44:00.936Z,16.80
2018-06-08T03:46:30.506Z,16.80
2018-06-08T03:48:59.432Z,16.80
2018-06-08T03:51:28.576Z,16.80
2018-06-08T03:54:04.429Z,16.90
2018-06-08T03:56:33.571Z,16.90
2018-06-08T03:59:02.688Z,16.90
2018-06-08T04:01:31.708Z,16.90
2018-06-08T04:04:00.445Z,17.00
2018-06-08T04:06:29.181Z,17.00
2018-06-08T04:09:01.922Z,17.00
2018-06-08T04:11:30.965Z,17.00
2018-06-08T04:13:59.778Z,17.00
2018-06-08T04:16:31.022Z,17.00
2018-06-08T04:18:59.817Z,16.80
2018-06-08T04:21:28.621Z,16.70
2018-06-08T04:23:58.469Z,16.70
2018-06-08T04:26:27.334Z,16.80
2018-06-08T04:28:56.322Z,16.80
2018-06-08T04:31:25.054Z,16.70
2018-06-08T04:33:54.230Z,16.70
2018-06-08T04:36:25.103Z,16.60
2018-06-08T04:38:56.961Z,16.70
2018-06-08T04:41:25.585Z,16.80
2018-06-08T04:43:54.610Z,16.80
2018-06-08T04:46:23.466Z,16.80
2018-06-08T04:48:52.249Z,16.70
2018-06-08T04:51:21.044Z,16.90
2018-06-08T04:53:49.745Z,17.00
2018-06-08T04:56:18.313Z,17.10
2018-06-08T04:58:52.027Z,17.20
2018-06-08T05:01:20.661Z,17.30
2018-06-08T05:03:49.244Z,17.20
2018-06-08T05:06:17.871Z,17.20
2018-06-08T05:08:46.492Z,17.30
2018-06-08T05:11:17.070Z,17.30
2018-06-08T05:13:45.985Z,17.40
2018-06-08T05:16:14.790Z,17.40
2018-06-08T05:18:43.389Z,17.50
2018-06-08T05:21:12.110Z,17.60
2018-06-08T05:23:40.722Z,17.60
2018-06-08T05:26:09.557Z,17.60
2018-06-08T05:28:38.093Z,17.60
2018-06-08T05:31:06.684Z,17.60
2018-06-08T05:33:35.319Z,17.70
2018-06-08T05:36:04.009Z,17.50
2018-06-08T05:38:32.525Z,17.60
2018-06-08T05:41:01.963Z,17.70
2018-06-08T05:43:30.535Z,17.70
2018-06-08T05:45:59.115Z,17.70
2018-06-08T05:48:27.731Z,17.80
2018-06-08T05:50:56.329Z,17.80
2018-06-08T05:53:24.978Z,17.90
2018-06-08T05:55:53.617Z,18.00
2018-06-08T05:58:22.343Z,18.00
2018-06-08T06:00:50.973Z,18.10
2018-06-08T06:03:20.596Z,18.20
2018-06-08T06:05:49.428Z,18.30
2018-06-08T06:08:18.317Z,18.30
2018-06-08T06:10:49.189Z,18.20
2018-06-08T06:13:17.750Z,18.40
2018-06-08T06:15:46.320Z,18.50
2018-06-08T06:18:14.984Z,18.50
2018-06-08T06:20:44.101Z,18.50
2018-06-08T06:23:12.991Z,18.50
2018-06-08T06:25:41.857Z,18.70
2018-06-08T06:28:10.502Z,18.60
2018-06-08T06:30:39.119Z,18.40
2018-06-08T06:33:07.754Z,18.60
2018-06-08T06:35:36.295Z,18.90
2018-06-08T06:38:05.108Z,19.00
2018-06-08T06:40:33.747Z,19.30
2018-06-08T06:43:02.344Z,19.20
2018-06-08T06:45:30.944Z,19.20
2018-06-08T06:47:59.582Z,19.30
2018-06-08T06:50:28.143Z,19.20
2018-06-08T06:52:56.949Z,19.10
2018-06-08T06:55:25.582Z,19.20
2018-06-08T06:57:54.142Z,19.40
2018-06-08T07:00:22.741Z,19.40
2018-06-08T07:02:51.346Z,19.60
2018-06-08T07:05:19.922Z,19.90
2018-06-08T07:07:48.463Z,20.00
2018-06-08T07:10:17.116Z,20.10
2018-06-08T07:12:45.685Z,20.20
2018-06-08T07:15:14.250Z,20.40
2018-06-08T07:17:42.834Z,20.40
2018-06-08T07:20:11.380Z,20.60
2018-06-08T07:22:39.920Z,20.90
2018-06-08T07:25:08.554Z,21.10
2018-06-08T07:27:37.095Z,21.10
2018-06-08T07:30:05.622Z,21.40
2018-06-08T07:32:34.205Z,21.50
2018-06-08T07:35:02.736Z,21.60
2018-06-08T07:39:59.530Z,22.10
2018-06-08T07:42:28.061Z,22.20
2018-06-08T07:44:56.657Z,22.20
2018-06-08T07:47:25.214Z,22.30
2018-06-08T07:49:53.692Z,22.70
2018-06-08T07:52:22.245Z,23.00
2018-06-08T07:54:50.854Z,23.40
2018-06-08T07:57:19.402Z,23.70
2018-06-08T07:59:47.901Z,24.00
2018-06-08T08:02:16.527Z,24.50
2018-06-08T08:04:45.164Z,24.50
2018-06-08T08:07:13.700Z,24.60
2018-06-08T08:09:42.270Z,25.00
2018-06-08T08:12:10.875Z,25.20
2018-06-08T08:14:39.398Z,25.50
2018-06-08T08:17:08.033Z,25.70
2018-06-08T08:19:36.553Z,26.10
2018-06-08T08:22:05.091Z,26.50
2018-06-08T08:24:33.638Z,27.30
2018-06-08T08:27:02.178Z,27.90
2018-06-08T08:29:30.711Z,28.50
2018-06-08T08:31:59.232Z,29.10
2018-06-08T08:34:27.774Z,29.00
2018-06-08T08:36:56.287Z,27.90
2018-06-08T08:39:24.826Z,29.40
2018-06-08T08:41:53.406Z,30.10
2018-06-08T08:44:21.949Z,30.70
2018-06-08T08:46:50.457Z,30.50
2018-06-08T08:49:19.001Z,30.60
2018-06-08T08:51:47.606Z,30.60
2018-06-08T08:54:16.088Z,31.30
2018-06-08T08:56:44.624Z,31.70
2018-06-08T08:59:13.148Z,30.90
2018-06-08T09:01:41.700Z,31.50
2018-06-08T09:04:10.235Z,31.70
2018-06-08T09:06:38.751Z,31.90
2018-06-08T09:09:07.590Z,31.70
2018-06-08T09:11:36.143Z,32.10
2018-06-08T09:14:04.723Z,32.50
2018-06-08T09:16:33.289Z,32.30
2018-06-08T09:19:01.772Z,32.20
2018-06-08T09:21:30.318Z,31.70
2018-06-08T09:23:58.862Z,31.60
2018-06-08T09:26:27.374Z,30.90
2018-06-08T09:28:55.883Z,31.60
2018-06-08T09:31:24.430Z,32.10
2018-06-08T09:33:52.973Z,32.30
2018-06-08T09:36:21.586Z,32.40
2018-06-08T09:41:19.550Z,32.10
2018-06-08T09:43:48.241Z,32.40
2018-06-08T09:46:17.038Z,32.30
2018-06-08T09:48:45.725Z,32.50
2018-06-08T09:51:14.298Z,32.10
2018-06-08T09:53:42.914Z,32.00
2018-06-08T09:56:11.569Z,31.60
2018-06-08T09:58:40.203Z,31.80
2018-06-08T10:01:08.916Z,32.10
2018-06-08T10:03:37.501Z,32.40
2018-06-08T10:06:06.102Z,32.50
2018-06-08T10:08:34.639Z,32.10
2018-06-08T10:11:03.155Z,31.90
2018-06-08T10:13:31.784Z,32.00
2018-06-08T10:16:00.367Z,31.50
2018-06-08T10:18:28.921Z,31.60
2018-06-08T10:20:57.482Z,31.40
2018-06-08T10:23:26.032Z,31.80
2018-06-08T10:25:54.599Z,32.20
2018-06-08T10:28:23.162Z,32.10
2018-06-08T10:30:51.670Z,31.80
2018-06-08T10:33:20.225Z,31.70
2018-06-08T10:35:48.781Z,31.40
2018-06-08T10:38:17.385Z,31.20
2018-06-08T10:40:45.993Z,31.50
2018-06-08T10:43:14.524Z,31.20
2018-06-08T10:45:43.711Z,31.60
2018-06-08T10:48:12.253Z,31.40
2018-06-08T10:50:40.913Z,31.50
2018-06-08T10:53:09.560Z,31.00
2018-06-08T10:55:38.090Z,30.20
2018-06-08T10:58:06.705Z,30.50
2018-06-08T11:00:35.368Z,30.60
2018-06-08T11:03:03.908Z,30.10
2018-06-08T11:05:32.416Z,30.30
2018-06-08T11:08:01.014Z,30.60
2018-06-08T11:10:29.578Z,30.80
2018-06-08T11:12:58.281Z,31.20
2018-06-08T11:15:27.018Z,30.60
2018-06-08T11:17:55.538Z,30.90
2018-06-08T11:20:24.197Z,30.40
2018-06-08T11:22:52.848Z,30.20
2018-06-08T11:25:21.525Z,30.50
2018-06-08T11:27:50.166Z,30.20
2018-06-08T11:30:18.816Z,30.10
2018-06-08T11:32:47.381Z,30.10
2018-06-08T11:35:15.874Z,29.70
2018-06-08T11:37:45.809Z,29.50
2018-06-08T11:40:14.404Z,29.80
2018-06-08T11:42:43.000Z,29.60
2018-06-08T11:45:12.514Z,29.50
2018-06-08T11:47:41.090Z,29.50
2018-06-08T11:50:09.648Z,29.10
2018-06-08T11:52:38.389Z,29.60
2018-06-08T11:55:06.944Z,30.30
2018-06-08T11:57:35.469Z,30.60
2018-06-08T12:00:04.670Z,30.50
2018-06-08T12:02:33.185Z,30.30
2018-06-08T12:05:01.672Z,30.20
2018-06-08T12:07:30.227Z,29.90
2018-06-08T12:09:58.718Z,30.30
2018-06-08T12:12:27.235Z,29.90
2018-06-08T12:14:55.802Z,30.30
2018-06-08T12:17:24.341Z,30.10
2018-06-08T12:19:52.877Z,30.10
2018-06-08T12:22:22.298Z,30.20
2018-06-08T12:24:51.993Z,30.50
2018-06-08T12:27:20.520Z,29.00
2018-06-08T12:29:49.067Z,29.50
2018-06-08T12:32:17.607Z,29.70
2018-06-08T12:34:46.135Z,30.00
2018-06-08T12:37:14.685Z,30.00
2018-06-08T12:39:43.245Z,29.70
2018-06-08T12:42:12.980Z,29.80
2018-06-08T12:44:41.613Z,30.00
2018-06-08T12:47:11.646Z,30.50
2018-06-08T12:49:40.177Z,31.10
2018-06-08T12:52:08.745Z,31.40
2018-06-08T12:54:37.335Z,31.60
2018-06-08T12:57:05.966Z,31.50
2018-06-08T12:59:34.564Z,30.60
2018-06-08T13:02:03.104Z,29.70
2018-06-08T13:04:32.553Z,29.70
2018-06-08T13:07:01.302Z,29.30
2018-06-08T13:09:29.838Z,28.10
2018-06-08T13:11:58.968Z,27.60
2018-06-08T13:14:28.478Z,28.00
2018-06-08T13:16:57.680Z,28.00
2018-06-08T13:19:26.275Z,28.10
2018-06-08T13:21:54.873Z,27.90
2018-06-08T13:24:23.424Z,27.30
2018-06-08T13:26:52.020Z,27.20
2018-06-08T13:29:20.651Z,27.10
2018-06-08T13:31:49.208Z,26.80
2018-06-08T13:34:17.760Z,26.80
2018-06-08T13:36:46.352Z,26.20
2018-06-08T13:39:14.954Z,26.00
2018-06-08T13:41:43.514Z,25.80
2018-06-08T13:44:12.177Z,25.30
2018-06-08T13:46:47.890Z,25.30
2018-06-08T13:49:16.511Z,25.10
2018-06-08T13:51:46.613Z,25.30
2018-06-08T13:54:16.220Z,25.10
2018-06-08T13:56:44.805Z,24.70
2018-06-08T13:59:13.405Z,25.00
2018-06-08T14:01:41.999Z,25.10
2018-06-08T14:04:10.669Z,25.10
2018-06-08T14:06:39.343Z,24.80
2018-06-08T14:09:07.984Z,24.90
2018-06-08T14:11:36.550Z,24.60
2018-06-08T14:16:33.385Z,23.70
2018-06-08T14:19:01.908Z,23.40
2018-06-08T14:21:30.458Z,23.00
2018-06-08T14:23:59.046Z,22.80
2018-06-08T14:26:27.594Z,22.70
2018-06-08T14:28:56.182Z,22.50
2018-06-08T14:31:24.741Z,21.80
2018-06-08T14:33:53.344Z,21.70
2018-06-08T14:36:21.928Z,21.10
2018-06-08T14:38:50.510Z,20.90
2018-06-08T14:41:19.171Z,20.50
2018-06-08T14:43:47.724Z,20.40
2018-06-08T14:46:16.312Z,20.10
2018-06-08T14:48:44.889Z,19.70
2018-06-08T14:51:13.638Z,19.30
2018-06-08T14:53:42.412Z,19.40
2018-06-08T14:56:10.969Z,19.50
2018-06-08T14:58:39.568Z,19.50
2018-06-08T15:01:08.159Z,19.50
2018-06-08T15:03:36.717Z,19.50
2018-06-08T15:06:05.333Z,19.20
2018-06-08T15:08:33.930Z,19.10
2018-06-08T15:11:02.491Z,19.00
2018-06-08T15:13:31.021Z,18.60
2018-06-08T15:15:59.659Z,18.70
2018-06-08T15:18:28.270Z,19.00
2018-06-08T15:20:56.896Z,19.10
2018-06-08T15:23:25.542Z,19.10
2018-06-08T15:25:54.081Z,19.10
2018-06-08T15:28:22.670Z,19.10
2018-06-08T15:30:51.248Z,19.30
2018-06-08T15:33:19.780Z,19.40
2018-06-08T15:35:48.398Z,19.30
2018-06-08T15:38:16.992Z,19.20
2018-06-08T15:40:45.565Z,19.10
2018-06-08T15:43:14.176Z,19.10
2018-06-08T15:45:42.754Z,19.10
2018-06-08T15:48:11.344Z,19.20
2018-06-08T15:50:39.979Z,19.20
2018-06-08T15:53:08.975Z,19.30
2018-06-08T15:55:37.537Z,19.40
2018-06-08T15:58:06.097Z,19.40
2018-06-08T16:00:34.680Z,19.40
2018-06-08T16:03:03.302Z,19.40
2018-06-08T16:05:31.923Z,19.40
2018-06-08T16:08:00.578Z,19.40
2018-06-08T16:10:29.122Z,19.40
2018-06-08T16:12:57.727Z,19.40
2018-06-08T16:15:26.373Z,19.40
2018-06-08T16:17:54.978Z,19.40
2018-06-08T16:20:23.527Z,19.30
2018-06-08T16:22:52.221Z,19.30
2018-06-08T16:25:20.799Z,19.20
2018-06-08T16:27:49.403Z,19.30
2018-06-08T16:30:18.041Z,19.10
2018-06-08T16:32:46.620Z,19.00
2018-06-08T16:35:15.190Z,19.00
2018-06-08T16:37:43.882Z,19.10
2018-06-08T16:40:12.398Z,19.20
2018-06-08T16:42:41.642Z,19.20
2018-06-08T16:45:10.253Z,19.30
2018-06-08T16:47:38.772Z,19.40
2018-06-08T16:50:07.377Z,19.30
2018-06-08T16:52:36.148Z,19.30
2018-06-08T16:55:05.030Z,19.00
2018-06-08T16:57:39.682Z,18.90
2018-06-08T17:00:08.629Z,18.80
2018-06-08T17:02:37.343Z,18.90
2018-06-08T17:05:06.073Z,19.10
2018-06-08T17:07:34.640Z,19.10
2018-06-08T17:10:03.217Z,19.20
2018-06-08T17:12:31.773Z,19.20
2018-06-08T17:15:00.431Z,19.10
2018-06-08T17:17:28.988Z,19.10
2018-06-08T17:19:57.549Z,19.20
2018-06-08T17:22:26.273Z,19.20
2018-06-08T17:27:23.276Z,19.20
2018-06-08T17:29:52.047Z,19.20
2018-06-08T17:32:20.630Z,19.30
2018-06-08T17:34:49.221Z,19.30
2018-06-08T17:37:17.818Z,19.20
2018-06-08T17:39:46.369Z,19.30
2018-06-08T17:42:14.993Z,19.30
2018-06-08T17:44:43.629Z,19.30
2018-06-08T17:47:12.204Z,19.40
2018-06-08T17:49:40.838Z,19.40
2018-06-08T17:52:09.474Z,19.40
2018-06-08T17:54:38.077Z,19.40
2018-06-08T17:57:06.753Z,19.30
2018-06-08T17:59:35.372Z,19.30
2018-06-08T18:02:04.511Z,19.20
2018-06-08T18:04:33.158Z,19.10
2018-06-08T18:07:02.016Z,19.20
2018-06-08T18:09:30.579Z,19.10
2018-06-08T18:11:59.202Z,19.10
2018-06-08T18:14:27.714Z,19.10
2018-06-08T18:16:56.396Z,19.10
2018-06-08T18:19:24.964Z,19.00
2018-06-08T18:21:53.723Z,18.90
2018-06-08T18:24:22.268Z,18.90
2018-06-08T18:26:51.151Z,18.80
2018-06-08T18:29:19.758Z,18.80
2018-06-08T18:31:48.443Z,18.70
2018-06-08T18:34:17.071Z,18.60
2018-06-08T18:36:46.126Z,18.60
2018-06-08T18:39:14.751Z,18.60
2018-06-08T18:41:44.265Z,18.60
2018-06-08T18:44:13.476Z,18.50
2018-06-08T18:46:42.609Z,18.30
2018-06-08T18:49:11.917Z,18.20
2018-06-08T18:51:41.399Z,18.10
2018-06-08T18:54:10.685Z,18.00
2018-06-08T18:56:40.086Z,18.00
2018-06-08T18:59:08.699Z,17.90
2018-06-08T19:01:39.261Z,17.90
2018-06-08T19:04:08.051Z,17.80
2018-06-08T19:06:36.645Z,17.80
2018-06-08T19:09:08.309Z,17.90
2018-06-08T19:11:36.990Z,17.80
2018-06-08T19:14:06.228Z,17.70
2018-06-08T19:16:34.799Z,17.70
2018-06-08T19:19:04.038Z,17.80
2018-06-08T19:21:33.186Z,17.90
2018-06-08T19:24:02.204Z,17.80
2018-06-08T19:26:33.408Z,17.80
2018-06-08T19:29:08.309Z,17.80
2018-06-08T19:31:41.746Z,17.70
2018-06-08T19:34:19.419Z,17.60
2018-06-08T19:36:51.729Z,17.60
2018-06-08T19:39:20.409Z,17.70
2018-06-08T19:41:49.050Z,17.60
2018-06-08T19:44:23.185Z,17.60
2018-06-08T19:46:52.011Z,17.50
2018-06-08T19:49:20.584Z,17.60
2018-06-08T19:51:49.166Z,17.50
2018-06-08T19:54:17.784Z,17.40
2018-06-08T19:56:46.553Z,17.30
2018-06-08T19:59:15.209Z,17.40
2018-06-08T20:01:43.728Z,17.40
2018-06-08T20:04:16.204Z,17.40
2018-06-08T20:06:44.797Z,17.30
2018-06-08T20:09:13.368Z,17.30
2018-06-08T20:11:44.129Z,17.20
2018-06-08T20:14:13.206Z,17.10
2018-06-08T20:19:09.970Z,17.10
2018-06-08T20:21:38.504Z,17.00
2018-06-08T20:24:07.544Z,17.00
2018-06-08T20:26:36.569Z,16.90
2018-06-08T20:29:05.121Z,16.90
2018-06-08T20:31:33.635Z,16.80
2018-06-08T20:34:03.148Z,16.90
2018-06-08T20:39:00.813Z,16.70
2018-06-08T20:41:29.362Z,16.70
2018-06-08T20:43:57.902Z,16.70
2018-06-08T20:46:26.417Z,16.70
2018-06-08T20:48:55.396Z,16.70
2018-06-08T20:51:24.412Z,16.70
2018-06-08T20:53:52.993Z,16.80
2018-06-08T20:56:21.633Z,16.70
2018-06-08T20:58:50.279Z,16.70
2018-06-08T21:01:18.896Z,16.70
2018-06-08T21:03:48.001Z,16.60
2018-06-08T21:06:16.556Z,16.60
2018-06-08T21:08:45.060Z,16.50
2018-06-08T21:11:13.611Z,16.50
2018-06-08T21:13:42.784Z,16.50
2018-06-08T21:18:40.179Z,16.40
2018-06-08T21:21:09.396Z,16.40
2018-06-08T21:23:38.011Z,16.40
2018-06-08T21:26:06.552Z,16.30
2018-06-08T21:28:35.084Z,16.30
2018-06-08T21:31:03.679Z,16.20
2018-06-08T21:33:32.236Z,16.20
2018-06-08T21:36:00.840Z,16.20
2018-06-08T21:38:29.473Z,16.20
2018-06-08T21:40:58.162Z,16.20
2018-06-08T21:43:27.341Z,16.10
2018-06-08T21:45:55.889Z,16.20
2018-06-08T21:48:24.664Z,16.10
2018-06-08T21:50:53.394Z,16.10
2018-06-08T21:53:21.944Z,16.10
2018-06-08T21:55:50.509Z,16.10
2018-06-08T21:58:19.047Z,16.10
2018-06-08T22:00:47.647Z,16.00
2018-06-08T22:03:16.872Z,16.00
2018-06-08T22:05:45.395Z,16.00
2018-06-08T22:08:13.904Z,16.00
2018-06-08T22:10:42.507Z,15.90
2018-06-08T22:13:11.118Z,15.90
2018-06-08T22:15:39.643Z,15.90
2018-06-08T22:18:08.205Z,15.90
2018-06-08T22:20:36.761Z,15.90
2018-06-08T22:23:05.310Z,15.90
2018-06-08T22:25:33.874Z,15.90
2018-06-08T22:30:30.958Z,15.90
2018-06-08T22:33:00.470Z,15.90
2018-06-08T22:35:29.422Z,15.90
2018-06-08T22:37:58.709Z,15.90
2018-06-08T22:40:27.268Z,15.90
2018-06-08T22:42:56.396Z,15.90
2018-06-08T22:45:24.920Z,15.90
2018-06-08T22:47:53.691Z,15.80
2018-06-08T22:50:22.248Z,15.80
2018-06-08T22:52:50.780Z,15.80
2018-06-08T22:55:19.373Z,15.70
2018-06-08T22:57:47.917Z,15.70
2018-06-08T23:00:19.482Z,15.50
2018-06-08T23:02:48.289Z,15.50
2018-06-08T23:05:16.851Z,15.50
2018-06-08T23:07:46.010Z,15.50
2018-06-08T23:10:14.520Z,15.40
2018-06-08T23:12:43.008Z,15.40
2018-06-08T23:15:11.576Z,15.40
2018-06-08T23:17:40.172Z,15.30
2018-06-08T23:20:08.691Z,15.30
2018-06-08T23:22:37.272Z,15.30
2018-06-08T23:25:05.781Z,15.20
2018-06-08T23:27:34.348Z,15.20
2018-06-08T23:30:02.934Z,15.20
2018-06-08T23:32:32.822Z,15.00
2018-06-08T23:35:01.361Z,15.10
2018-06-08T23:39:58.092Z,15.10
2018-06-08T23:42:26.658Z,15.00
2018-06-08T23:44:56.613Z,15.10
2018-06-08T23:47:25.160Z,15.10
2018-06-08T23:49:53.728Z,15.20
2018-06-08T23:52:22.294Z,15.20
2018-06-08T23:54:50.872Z,15.20
2018-06-08T23:57:19.390Z,15.20
2018-06-08T23:59:47.923Z,15.30
